sensor_id;sensor_type;location;lat;lon;timestamp;P1;durP1;ratioP1;P2;durP2;ratioP2
30080;SDS011;16902;50.816;12.828;2023-07-20T00:02:01;4.55;;;4.15;;
30080;SDS011;16902;50.816;12.828;2023-07-20T00:07:06;4.60;;;4.32;;
30080;SDS011;16902;50.816;12.828;2023-07-20T00:12:08;5.20;;;4.82;;
30080;SDS011;16902;50.816;12.828;2023-07-20T00:17:10;3.97;;;3.78;;
30080;SDS011;16902;50.816;12.828;2023-07-20T00:22:12;4.40;;;4.13;;
30080;SDS011;16902;50.816;12.828;2023-07-20T00:27:14;4.97;;;4.68;;
30080;SDS011;16902;50.816;12.828;2023-07-20T00:32:16;4.15;;;3.85;;
30080;SDS011;16902;50.816;12.828;2023-07-20T00:37:18;4.60;;;4.30;;
30080;SDS011;16902;50.816;12.828;2023-07-20T00:42:20;5.03;;;4.65;;
30080;SDS011;16902;50.816;12.828;2023-07-20T00:47:21;5.15;;;4.78;;
30080;SDS011;16902;50.816;12.828;2023-07-20T00:52:23;4.68;;;4.32;;
30080;SDS011;16902;50.816;12.828;2023-07-20T00:57:26;4.05;;;3.83;;
30080;SDS011;16902;50.816;12.828;2023-07-20T01:02:28;3.80;;;3.60;;
30080;SDS011;16902;50.816;12.828;2023-07-20T01:12:46;4.75;;;4.45;;
30080;SDS011;16902;50.816;12.828;2023-07-20T01:17:48;3.95;;;3.75;;
30080;SDS011;16902;50.816;12.828;2023-07-20T01:33:30;4.63;;;4.32;;
30080;SDS011;16902;50.816;12.828;2023-07-20T01:38:34;5.10;;;4.70;;
30080;SDS011;16902;50.816;12.828;2023-07-20T01:43:37;4.43;;;4.18;;
30080;SDS011;16902;50.816;12.828;2023-07-20T01:48:39;5.13;;;4.72;;
30080;SDS011;16902;50.816;12.828;2023-07-20T01:53:42;4.57;;;4.28;;
30080;SDS011;16902;50.816;12.828;2023-07-20T01:58:44;3.97;;;3.78;;
30080;SDS011;16902;50.816;12.828;2023-07-20T02:03:45;4.63;;;4.35;;
30080;SDS011;16902;50.816;12.828;2023-07-20T02:08:47;4.50;;;4.20;;
30080;SDS011;16902;50.816;12.828;2023-07-20T02:13:49;5.95;;;3.88;;
30080;SDS011;16902;50.816;12.828;2023-07-20T02:18:50;5.35;;;4.95;;
30080;SDS011;16902;50.816;12.828;2023-07-20T02:23:52;4.97;;;4.60;;
30080;SDS011;16902;50.816;12.828;2023-07-20T02:28:54;4.63;;;4.22;;
30080;SDS011;16902;50.816;12.828;2023-07-20T02:33:55;4.55;;;4.25;;
30080;SDS011;16902;50.816;12.828;2023-07-20T02:38:57;4.80;;;4.40;;
30080;SDS011;16902;50.816;12.828;2023-07-20T02:43:59;4.68;;;4.28;;
30080;SDS011;16902;50.816;12.828;2023-07-20T02:49:01;6.03;;;5.57;;
30080;SDS011;16902;50.816;12.828;2023-07-20T02:54:03;5.38;;;4.97;;
30080;SDS011;16902;50.816;12.828;2023-07-20T02:59:05;5.47;;;5.05;;
30080;SDS011;16902;50.816;12.828;2023-07-20T03:04:06;6.60;;;6.10;;
30080;SDS011;16902;50.816;12.828;2023-07-20T03:09:10;5.43;;;5.03;;
30080;SDS011;16902;50.816;12.828;2023-07-20T03:14:12;4.97;;;4.68;;
30080;SDS011;16902;50.816;12.828;2023-07-20T03:19:15;4.78;;;4.47;;
30080;SDS011;16902;50.816;12.828;2023-07-20T03:24:17;4.10;;;3.90;;
30080;SDS011;16902;50.816;12.828;2023-07-20T03:29:21;4.93;;;4.63;;
30080;SDS011;16902;50.816;12.828;2023-07-20T03:34:23;5.28;;;4.97;;
30080;SDS011;16902;50.816;12.828;2023-07-20T03:39:25;5.88;;;5.38;;
30080;SDS011;16902;50.816;12.828;2023-07-20T03:44:27;5.93;;;5.43;;
30080;SDS011;16902;50.816;12.828;2023-07-20T03:49:29;5.93;;;5.53;;
30080;SDS011;16902;50.816;12.828;2023-07-20T03:54:31;5.70;;;5.30;;
30080;SDS011;16902;50.816;12.828;2023-07-20T03:59:33;7.00;;;6.40;;
30080;SDS011;16902;50.816;12.828;2023-07-20T04:04:35;7.68;;;6.95;;
30080;SDS011;16902;50.816;12.828;2023-07-20T04:09:37;6.65;;;6.15;;
30080;SDS011;16902;50.816;12.828;2023-07-20T04:14:39;5.53;;;5.20;;
30080;SDS011;16902;50.816;12.828;2023-07-20T04:19:41;5.50;;;5.10;;
30080;SDS011;16902;50.816;12.828;2023-07-20T04:24:43;6.70;;;6.28;;
30080;SDS011;16902;50.816;12.828;2023-07-20T04:29:45;4.80;;;4.50;;
30080;SDS011;16902;50.816;12.828;2023-07-20T04:34:47;5.97;;;5.13;;
30080;SDS011;16902;50.816;12.828;2023-07-20T04:39:49;5.13;;;4.82;;
30080;SDS011;16902;50.816;12.828;2023-07-20T04:44:51;5.93;;;5.53;;
30080;SDS011;16902;50.816;12.828;2023-07-20T04:49:53;6.13;;;5.70;;
30080;SDS011;16902;50.816;12.828;2023-07-20T04:54:55;5.25;;;4.95;;
30080;SDS011;16902;50.816;12.828;2023-07-20T04:59:57;5.00;;;4.70;;
30080;SDS011;16902;50.816;12.828;2023-07-20T05:04:59;6.45;;;5.93;;
30080;SDS011;16902;50.816;12.828;2023-07-20T05:10:01;6.25;;;5.75;;
30080;SDS011;16902;50.816;12.828;2023-07-20T05:15:03;5.57;;;5.28;;
30080;SDS011;16902;50.816;12.828;2023-07-20T05:20:06;6.50;;;6.10;;
30080;SDS011;16902;50.816;12.828;2023-07-20T05:25:08;6.15;;;5.75;;
30080;SDS011;16902;50.816;12.828;2023-07-20T05:30:11;5.47;;;5.18;;
30080;SDS011;16902;50.816;12.828;2023-07-20T05:35:13;5.15;;;4.80;;
30080;SDS011;16902;50.816;12.828;2023-07-20T05:40:16;4.28;;;4.07;;
30080;SDS011;16902;50.816;12.828;2023-07-20T05:45:21;5.07;;;4.88;;
30080;SDS011;16902;50.816;12.828;2023-07-20T05:50:22;4.18;;;4.07;;
30080;SDS011;16902;50.816;12.828;2023-07-20T05:55:24;4.20;;;4.10;;
30080;SDS011;16902;50.816;12.828;2023-07-20T06:00:26;4.70;;;4.50;;
30080;SDS011;16902;50.816;12.828;2023-07-20T06:05:29;4.47;;;4.28;;
30080;SDS011;16902;50.816;12.828;2023-07-20T06:10:32;3.88;;;3.78;;
30080;SDS011;16902;50.816;12.828;2023-07-20T06:15:33;4.10;;;4.00;;
30080;SDS011;16902;50.816;12.828;2023-07-20T06:20:39;4.22;;;4.10;;
30080;SDS011;16902;50.816;12.828;2023-07-20T06:25:41;4.38;;;4.03;;
30080;SDS011;16902;50.816;12.828;2023-07-20T06:30:43;4.32;;;4.13;;
30080;SDS011;16902;50.816;12.828;2023-07-20T06:35:45;3.55;;;3.45;;
30080;SDS011;16902;50.816;12.828;2023-07-20T06:40:47;4.80;;;4.50;;
30080;SDS011;16902;50.816;12.828;2023-07-20T06:45:52;4.75;;;4.55;;
30080;SDS011;16902;50.816;12.828;2023-07-20T06:50:57;5.40;;;5.20;;
30080;SDS011;16902;50.816;12.828;2023-07-20T06:55:59;4.68;;;4.55;;
30080;SDS011;16902;50.816;12.828;2023-07-20T07:01:04;5.13;;;4.93;;
30080;SDS011;16902;50.816;12.828;2023-07-20T07:06:10;6.10;;;5.90;;
30080;SDS011;16902;50.816;12.828;2023-07-20T07:11:12;6.70;;;6.40;;
30080;SDS011;16902;50.816;12.828;2023-07-20T07:16:15;6.30;;;6.00;;
30080;SDS011;16902;50.816;12.828;2023-07-20T07:21:21;6.50;;;6.20;;
30080;SDS011;16902;50.816;12.828;2023-07-20T07:26:23;6.85;;;6.55;;
30080;SDS011;16902;50.816;12.828;2023-07-20T07:31:25;7.25;;;6.82;;
30080;SDS011;16902;50.816;12.828;2023-07-20T07:36:28;7.00;;;6.70;;
30080;SDS011;16902;50.816;12.828;2023-07-20T07:41:30;8.52;;;8.02;;
30080;SDS011;16902;50.816;12.828;2023-07-20T07:46:32;8.93;;;8.43;;
30080;SDS011;16902;50.816;12.828;2023-07-20T07:51:34;8.65;;;8.25;;
30080;SDS011;16902;50.816;12.828;2023-07-20T07:56:36;9.02;;;8.52;;
30080;SDS011;16902;50.816;12.828;2023-07-20T08:01:38;9.20;;;8.70;;
30080;SDS011;16902;50.816;12.828;2023-07-20T08:06:40;9.20;;;8.65;;
30080;SDS011;16902;50.816;12.828;2023-07-20T08:11:41;10.75;;;10.15;;
30080;SDS011;16902;50.816;12.828;2023-07-20T08:16:43;11.15;;;10.43;;
30080;SDS011;16902;50.816;12.828;2023-07-20T08:21:45;11.50;;;10.80;;
30080;SDS011;16902;50.816;12.828;2023-07-20T08:26:47;10.95;;;10.48;;
30080;SDS011;16902;50.816;12.828;2023-07-20T08:31:49;11.57;;;10.98;;
30080;SDS011;16902;50.816;12.828;2023-07-20T08:36:51;11.13;;;10.63;;
30080;SDS011;16902;50.816;12.828;2023-07-20T08:41:53;11.40;;;10.90;;
30080;SDS011;16902;50.816;12.828;2023-07-20T08:46:57;10.98;;;10.45;;
30080;SDS011;16902;50.816;12.828;2023-07-20T08:52:00;10.35;;;9.90;;
30080;SDS011;16902;50.816;12.828;2023-07-20T08:57:04;11.48;;;10.98;;
30080;SDS011;16902;50.816;12.828;2023-07-20T09:02:06;10.88;;;10.48;;
30080;SDS011;16902;50.816;12.828;2023-07-20T09:07:19;12.05;;;11.55;;
30080;SDS011;16902;50.816;12.828;2023-07-20T09:12:22;12.88;;;12.13;;
30080;SDS011;16902;50.816;12.828;2023-07-20T09:17:25;11.63;;;11.13;;
30080;SDS011;16902;50.816;12.828;2023-07-20T09:22:31;13.02;;;12.43;;
30080;SDS011;16902;50.816;12.828;2023-07-20T09:27:37;11.43;;;11.02;;
30080;SDS011;16902;50.816;12.828;2023-07-20T09:32:40;11.70;;;11.20;;
30080;SDS011;16902;50.816;12.828;2023-07-20T09:37:49;11.63;;;11.15;;
30080;SDS011;16902;50.816;12.828;2023-07-20T09:43:15;12.27;;;11.77;;
30080;SDS011;16902;50.816;12.828;2023-07-20T09:48:23;12.48;;;11.98;;
30080;SDS011;16902;50.816;12.828;2023-07-20T09:53:29;12.82;;;12.32;;
30080;SDS011;16902;50.816;12.828;2023-07-20T09:58:33;13.73;;;13.13;;
30080;SDS011;16902;50.816;12.828;2023-07-20T10:03:36;13.18;;;12.68;;
30080;SDS011;16902;50.816;12.828;2023-07-20T10:08:39;12.85;;;12.30;;
30080;SDS011;16902;50.816;12.828;2023-07-20T10:13:45;12.60;;;12.20;;
30080;SDS011;16902;50.816;12.828;2023-07-20T10:24:25;11.48;;;11.05;;
30080;SDS011;16902;50.816;12.828;2023-07-20T10:29:28;11.45;;;11.05;;
30080;SDS011;16902;50.816;12.828;2023-07-20T10:34:31;12.90;;;12.40;;
30080;SDS011;16902;50.816;12.828;2023-07-20T10:39:33;12.88;;;12.38;;
30080;SDS011;16902;50.816;12.828;2023-07-20T10:44:39;12.70;;;12.10;;
30080;SDS011;16902;50.816;12.828;2023-07-20T10:50:00;12.73;;;12.20;;
30080;SDS011;16902;50.816;12.828;2023-07-20T10:55:10;11.90;;;11.50;;
30080;SDS011;16902;50.816;12.828;2023-07-20T11:00:19;12.30;;;11.80;;
30080;SDS011;16902;50.816;12.828;2023-07-20T11:10:40;12.32;;;11.82;;
30080;SDS011;16902;50.816;12.828;2023-07-20T11:16:00;12.73;;;12.13;;
30080;SDS011;16902;50.816;12.828;2023-07-20T11:21:08;12.77;;;12.27;;
30080;SDS011;16902;50.816;12.828;2023-07-20T11:26:11;12.57;;;12.07;;
30080;SDS011;16902;50.816;12.828;2023-07-20T11:31:14;12.23;;;11.73;;
30080;SDS011;16902;50.816;12.828;2023-07-20T11:36:17;13.00;;;12.50;;
30080;SDS011;16902;50.816;12.828;2023-07-20T11:41:23;12.25;;;11.75;;
30080;SDS011;16902;50.816;12.828;2023-07-20T11:46:27;12.27;;;11.77;;
30080;SDS011;16902;50.816;12.828;2023-07-20T11:51:32;12.27;;;11.88;;
30080;SDS011;16902;50.816;12.828;2023-07-20T11:56:34;11.88;;;11.48;;
30080;SDS011;16902;50.816;12.828;2023-07-20T12:01:36;12.80;;;12.30;;
30080;SDS011;16902;50.816;12.828;2023-07-20T12:06:38;12.73;;;12.23;;
30080;SDS011;16902;50.816;12.828;2023-07-20T12:11:42;13.13;;;12.63;;
30080;SDS011;16902;50.816;12.828;2023-07-20T12:16:51;13.10;;;12.60;;
30080;SDS011;16902;50.816;12.828;2023-07-20T12:21:57;12.32;;;11.82;;
30080;SDS011;16902;50.816;12.828;2023-07-20T12:27:00;11.13;;;10.73;;
30080;SDS011;16902;50.816;12.828;2023-07-20T12:32:03;10.52;;;10.13;;
30080;SDS011;16902;50.816;12.828;2023-07-20T12:37:06;10.02;;;9.63;;
30080;SDS011;16902;50.816;12.828;2023-07-20T12:42:10;9.60;;;9.20;;
30080;SDS011;16902;50.816;12.828;2023-07-20T12:47:12;9.63;;;9.23;;
30080;SDS011;16902;50.816;12.828;2023-07-20T12:52:14;10.82;;;10.23;;
30080;SDS011;16902;50.816;12.828;2023-07-20T12:57:16;11.40;;;10.90;;
30080;SDS011;16902;50.816;12.828;2023-07-20T13:02:18;11.75;;;11.35;;
30080;SDS011;16902;50.816;12.828;2023-07-20T13:07:28;12.23;;;11.73;;
30080;SDS011;16902;50.816;12.828;2023-07-20T13:12:35;12.75;;;12.25;;
30080;SDS011;16902;50.816;12.828;2023-07-20T13:17:38;12.35;;;11.85;;
30080;SDS011;16902;50.816;12.828;2023-07-20T13:22:40;11.80;;;11.40;;
30080;SDS011;16902;50.816;12.828;2023-07-20T13:27:42;12.25;;;11.75;;
30080;SDS011;16902;50.816;12.828;2023-07-20T13:32:45;12.43;;;11.93;;
30080;SDS011;16902;50.816;12.828;2023-07-20T13:37:47;12.82;;;12.32;;
30080;SDS011;16902;50.816;12.828;2023-07-20T13:42:49;12.38;;;11.88;;
30080;SDS011;16902;50.816;12.828;2023-07-20T13:47:51;11.75;;;11.35;;
30080;SDS011;16902;50.816;12.828;2023-07-20T13:52:54;12.73;;;12.23;;
30080;SDS011;16902;50.816;12.828;2023-07-20T13:57:59;12.43;;;11.93;;
30080;SDS011;16902;50.816;12.828;2023-07-20T14:03:00;13.07;;;12.57;;
30080;SDS011;16902;50.816;12.828;2023-07-20T14:08:05;12.57;;;12.10;;
30080;SDS011;16902;50.816;12.828;2023-07-20T14:13:07;12.68;;;12.20;;
30080;SDS011;16902;50.816;12.828;2023-07-20T14:18:10;13.13;;;12.63;;
30080;SDS011;16902;50.816;12.828;2023-07-20T14:23:11;12.50;;;12.00;;
30080;SDS011;16902;50.816;12.828;2023-07-20T14:28:13;13.05;;;12.55;;
30080;SDS011;16902;50.816;12.828;2023-07-20T14:33:15;12.65;;;12.15;;
30080;SDS011;16902;50.816;12.828;2023-07-20T14:38:17;12.40;;;11.95;;
30080;SDS011;16902;50.816;12.828;2023-07-20T14:43:19;13.02;;;12.52;;
30080;SDS011;16902;50.816;12.828;2023-07-20T14:48:21;12.25;;;11.82;;
30080;SDS011;16902;50.816;12.828;2023-07-20T14:53:24;12.38;;;11.88;;
30080;SDS011;16902;50.816;12.828;2023-07-20T14:58:37;12.48;;;11.98;;
30080;SDS011;16902;50.816;12.828;2023-07-20T15:03:38;12.85;;;12.35;;
30080;SDS011;16902;50.816;12.828;2023-07-20T15:08:40;12.65;;;12.20;;
30080;SDS011;16902;50.816;12.828;2023-07-20T15:13:42;12.30;;;11.90;;
30080;SDS011;16902;50.816;12.828;2023-07-20T15:18:44;12.38;;;11.85;;
30080;SDS011;16902;50.816;12.828;2023-07-20T15:23:49;12.50;;;12.00;;
30080;SDS011;16902;50.816;12.828;2023-07-20T15:28:51;12.25;;;11.75;;
30080;SDS011;16902;50.816;12.828;2023-07-20T15:33:53;12.95;;;12.45;;
30080;SDS011;16902;50.816;12.828;2023-07-20T15:38:55;12.60;;;12.10;;
30080;SDS011;16902;50.816;12.828;2023-07-20T15:43:59;12.60;;;12.10;;
30080;SDS011;16902;50.816;12.828;2023-07-20T15:49:01;12.55;;;12.05;;
30080;SDS011;16902;50.816;12.828;2023-07-20T15:54:05;12.80;;;12.30;;
30080;SDS011;16902;50.816;12.828;2023-07-20T15:59:10;13.00;;;12.50;;
30080;SDS011;16902;50.816;12.828;2023-07-20T16:04:14;12.20;;;11.80;;
30080;SDS011;16902;50.816;12.828;2023-07-20T16:09:16;12.23;;;11.77;;
30080;SDS011;16902;50.816;12.828;2023-07-20T16:14:20;13.00;;;12.50;;
30080;SDS011;16902;50.816;12.828;2023-07-20T16:19:22;12.27;;;11.88;;
30080;SDS011;16902;50.816;12.828;2023-07-20T16:24:24;13.50;;;13.00;;
30080;SDS011;16902;50.816;12.828;2023-07-20T16:29:26;11.73;;;11.32;;
30080;SDS011;16902;50.816;12.828;2023-07-20T16:34:29;12.05;;;11.65;;
30080;SDS011;16902;50.816;12.828;2023-07-20T16:39:49;12.40;;;12.00;;
30080;SDS011;16902;50.816;12.828;2023-07-20T16:44:53;12.35;;;11.95;;
30080;SDS011;16902;50.816;12.828;2023-07-20T16:49:55;12.60;;;12.10;;
30080;SDS011;16902;50.816;12.828;2023-07-20T16:54:57;12.50;;;12.00;;
30080;SDS011;16902;50.816;12.828;2023-07-20T16:59:58;12.70;;;12.20;;
30080;SDS011;16902;50.816;12.828;2023-07-20T17:05:00;12.50;;;12.00;;
30080;SDS011;16902;50.816;12.828;2023-07-20T17:10:02;12.30;;;11.90;;
30080;SDS011;16902;50.816;12.828;2023-07-20T17:15:04;12.68;;;12.20;;
30080;SDS011;16902;50.816;12.828;2023-07-20T17:20:07;13.10;;;12.60;;
30080;SDS011;16902;50.816;12.828;2023-07-20T17:25:16;12.43;;;12.02;;
30080;SDS011;16902;50.816;12.828;2023-07-20T17:30:21;12.15;;;11.75;;
30080;SDS011;16902;50.816;12.828;2023-07-20T17:35:24;11.70;;;11.30;;
30080;SDS011;16902;50.816;12.828;2023-07-20T17:40:28;11.88;;;11.48;;
30080;SDS011;16902;50.816;12.828;2023-07-20T17:45:33;12.35;;;11.88;;
30080;SDS011;16902;50.816;12.828;2023-07-20T17:50:35;12.27;;;11.88;;
30080;SDS011;16902;50.816;12.828;2023-07-20T17:55:37;12.60;;;12.10;;
30080;SDS011;16902;50.816;12.828;2023-07-20T18:00:39;12.52;;;12.02;;
30080;SDS011;16902;50.816;12.828;2023-07-20T18:05:40;12.35;;;11.90;;
30080;SDS011;16902;50.816;12.828;2023-07-20T18:10:42;11.90;;;11.50;;
30080;SDS011;16902;50.816;12.828;2023-07-20T18:15:44;11.85;;;11.45;;
30080;SDS011;16902;50.816;12.828;2023-07-20T18:20:56;11.55;;;11.15;;
30080;SDS011;16902;50.816;12.828;2023-07-20T18:25:58;12.13;;;11.63;;
30080;SDS011;16902;50.816;12.828;2023-07-20T18:31:03;11.57;;;11.18;;
30080;SDS011;16902;50.816;12.828;2023-07-20T18:36:08;11.32;;;10.93;;
30080;SDS011;16902;50.816;12.828;2023-07-20T18:41:10;10.75;;;10.35;;
30080;SDS011;16902;50.816;12.828;2023-07-20T18:46:13;11.48;;;11.07;;
30080;SDS011;16902;50.816;12.828;2023-07-20T18:51:15;11.23;;;10.82;;
30080;SDS011;16902;50.816;12.828;2023-07-20T18:56:17;10.45;;;10.05;;
30080;SDS011;16902;50.816;12.828;2023-07-20T19:01:19;10.07;;;9.75;;
30080;SDS011;16902;50.816;12.828;2023-07-20T19:06:21;10.27;;;9.88;;
30080;SDS011;16902;50.816;12.828;2023-07-20T19:11:24;10.32;;;9.93;;
30080;SDS011;16902;50.816;12.828;2023-07-20T19:16:32;9.68;;;9.20;;
30080;SDS011;16902;50.816;12.828;2023-07-20T19:21:34;9.60;;;9.27;;
30080;SDS011;16902;50.816;12.828;2023-07-20T19:26:36;8.93;;;8.63;;
30080;SDS011;16902;50.816;12.828;2023-07-20T19:31:38;8.40;;;8.10;;
30080;SDS011;16902;50.816;12.828;2023-07-20T19:36:40;8.80;;;8.50;;
30080;SDS011;16902;50.816;12.828;2023-07-20T19:41:43;8.90;;;8.60;;
30080;SDS011;16902;50.816;12.828;2023-07-20T19:46:45;8.32;;;8.02;;
30080;SDS011;16902;50.816;12.828;2023-07-20T19:51:47;8.65;;;8.35;;
30080;SDS011;16902;50.816;12.828;2023-07-20T19:56:49;7.97;;;7.68;;
30080;SDS011;16902;50.816;12.828;2023-07-20T20:01:51;7.97;;;7.68;;
30080;SDS011;16902;50.816;12.828;2023-07-20T20:06:53;8.00;;;7.70;;
30080;SDS011;16902;50.816;12.828;2023-07-20T20:11:55;7.40;;;7.10;;
30080;SDS011;16902;50.816;12.828;2023-07-20T20:16:57;7.38;;;7.07;;
30080;SDS011;16902;50.816;12.828;2023-07-20T20:21:59;6.65;;;6.45;;
30080;SDS011;16902;50.816;12.828;2023-07-20T20:27:02;6.90;;;6.60;;
30080;SDS011;16902;50.816;12.828;2023-07-20T20:32:06;6.90;;;6.60;;
30080;SDS011;16902;50.816;12.828;2023-07-20T20:37:08;6.55;;;6.35;;
30080;SDS011;16902;50.816;12.828;2023-07-20T20:42:10;7.35;;;7.05;;
30080;SDS011;16902;50.816;12.828;2023-07-20T20:47:12;6.47;;;6.28;;
30080;SDS011;16902;50.816;12.828;2023-07-20T20:52:14;6.82;;;6.53;;
30080;SDS011;16902;50.816;12.828;2023-07-20T20:57:20;6.75;;;6.47;;
30080;SDS011;16902;50.816;12.828;2023-07-20T21:02:22;6.32;;;6.13;;
30080;SDS011;16902;50.816;12.828;2023-07-20T21:07:24;6.28;;;6.07;;
30080;SDS011;16902;50.816;12.828;2023-07-20T21:12:26;6.57;;;6.28;;
30080;SDS011;16902;50.816;12.828;2023-07-20T21:17:28;6.35;;;6.15;;
30080;SDS011;16902;50.816;12.828;2023-07-20T21:22:32;7.10;;;6.70;;
30080;SDS011;16902;50.816;12.828;2023-07-20T21:27:34;5.95;;;5.75;;
30080;SDS011;16902;50.816;12.828;2023-07-20T21:32:36;6.30;;;6.00;;
30080;SDS011;16902;50.816;12.828;2023-07-20T21:37:38;6.03;;;5.82;;
30080;SDS011;16902;50.816;12.828;2023-07-20T21:42:40;5.75;;;5.55;;
30080;SDS011;16902;50.816;12.828;2023-07-20T21:47:42;5.78;;;5.57;;
30080;SDS011;16902;50.816;12.828;2023-07-20T21:52:43;5.47;;;5.28;;
30080;SDS011;16902;50.816;12.828;2023-07-20T21:57:45;6.40;;;6.10;;
30080;SDS011;16902;50.816;12.828;2023-07-20T22:02:47;5.82;;;5.63;;
30080;SDS011;16902;50.816;12.828;2023-07-20T22:07:49;5.43;;;5.22;;
30080;SDS011;16902;50.816;12.828;2023-07-20T22:12:50;5.65;;;5.45;;
30080;SDS011;16902;50.816;12.828;2023-07-20T22:17:53;5.78;;;5.47;;
30080;SDS011;16902;50.816;12.828;2023-07-20T22:22:55;5.78;;;5.57;;
30080;SDS011;16902;50.816;12.828;2023-07-20T22:27:59;5.28;;;5.07;;
30080;SDS011;16902;50.816;12.828;2023-07-20T22:33:01;6.03;;;5.78;;
30080;SDS011;16902;50.816;12.828;2023-07-20T22:38:02;5.82;;;5.63;;
30080;SDS011;16902;50.816;12.828;2023-07-20T22:43:04;5.55;;;5.35;;
30080;SDS011;16902;50.816;12.828;2023-07-20T22:48:06;5.45;;;5.25;;
30080;SDS011;16902;50.816;12.828;2023-07-20T22:53:08;5.80;;;5.60;;
30080;SDS011;16902;50.816;12.828;2023-07-20T22:58:09;5.38;;;5.15;;
30080;SDS011;16902;50.816;12.828;2023-07-20T23:03:11;6.03;;;5.57;;
30080;SDS011;16902;50.816;12.828;2023-07-20T23:08:13;5.22;;;5.03;;
30080;SDS011;16902;50.816;12.828;2023-07-20T23:13:15;5.18;;;4.97;;
30080;SDS011;16902;50.816;12.828;2023-07-20T23:18:17;4.43;;;4.32;;
30080;SDS011;16902;50.816;12.828;2023-07-20T23:23:19;5.30;;;5.10;;
30080;SDS011;16902;50.816;12.828;2023-07-20T23:28:22;5.57;;;5.38;;
30080;SDS011;16902;50.816;12.828;2023-07-20T23:33:24;5.38;;;5.18;;
30080;SDS011;16902;50.816;12.828;2023-07-20T23:38:26;5.78;;;5.38;;
30080;SDS011;16902;50.816;12.828;2023-07-20T23:43:28;5.32;;;5.13;;
30080;SDS011;16902;50.816;12.828;2023-07-20T23:48:33;5.30;;;5.10;;
30080;SDS011;16902;50.816;12.828;2023-07-20T23:53:42;5.07;;;4.88;;
30080;SDS011;16902;50.816;12.828;2023-07-20T23:58:46;5.50;;;5.30;;
